Saint Louis, Missouri
Traffic Map
Current Weather Conditions
Saint Louis, Missouri
Scattered Clouds
Scattered Clouds
67°
Feels Like: 67°
Wind Chill: 67° Ceiling: Unl
Heat Index: 67° Visibility: 10mi
Dew Point: 57° Wind: 7mph
Humidity: 70% Direction: 160° (SSE)
Pressure: 30.07in Gusts: 0mph
Raw Report DataKCPS 211553Z 16006KT 10SM SCT110 19/14 A3007 RMK AO2 RAB1459E51 SLP181 P0000 T01940139 $
Traffic Incident Summary
Active as of:
Severity:
Category:
InformationThere was an issue retrieving the traffic information for this location. Please try a different location or try again shortly.
Advertisements